Latest Weather Observations for Launceston Airport

IDT60801

Issued at 3:21 pm EDT Thursday 13 December 2018 (issued every 10 minutes, with the page automatically refreshed every 10 minutes)

About weather observations | Map of weather stations | Latest weather observations for TAS | Other Formats
Station Details ID: 091311 Name: LAUNCESTON AIRPORT Lat: -41.55 Lon: 147.22 Height: 166.9 m
Data from the previous 72 hours. | See also: Recent months at Launceston Airport
Date/Time
EDT
Temp
°C
App
Temp
°C
Dew
Point
°C
Rel
Hum
%
Delta-T
°C
Wind Press
QNH
hPa
Press
MSL
hPa
Rain since
9am
mm
Dir  Spd
km/h
Gust
km/h
Spd
kts
Gust
kts
13/03:00pm 22.1 17.8 13.2 57 5.2 E 28 39 15 21 1003.9 1003.7 0.0
13/02:30pm 22.3 18.3 13.1 56 5.3 E 26 35 14 19 1003.9 1003.7 0.0
13/02:00pm 22.8 18.6 13.6 56 5.4 ENE 28 37 15 20 1003.7 1003.4 0.0
13/01:30pm 23.0 19.2 13.5 55 5.5 E 26 32 14 17 1003.7 1003.4 0.0
13/01:00pm 22.7 18.9 13.7 56 5.3 E 26 33 14 18 1003.6 1003.3 0.0
13/12:30pm 22.1 18.2 13.2 57 5.2 E 26 35 14 19 1003.6 1003.3 0.0
13/12:00pm 22.9 19.5 13.7 56 5.4 ESE 24 30 13 16 1003.4 1003.1 0.0
13/11:30am 21.9 17.8 12.7 56 5.3 E 26 37 14 20 1003.4 1003.1 0.0
13/11:00am 22.3 19.0 12.8 55 5.5 ESE 22 30 12 16 1003.3 1003.0 0.0
13/10:30am 21.8 18.9 12.9 57 5.1 ESE 20 33 11 18 1003.2 1002.9 0.0
13/10:00am 22.9 20.5 12.8 53 5.9 ENE 17 28 9 15 1003.3 1003.0 0.0
13/09:30am 19.7 18.9 13.9 69 3.4 S 11 17 6 9 1003.7 1003.4 0.0
13/09:00am 17.5 15.7 13.2 76 2.4 SSW 15 20 8 11 1003.9 1003.7 -
13/08:30am 16.9 15.2 12.6 76 2.4 SW 13 17 7 9 1003.9 1003.7 -
13/08:00am 16.1 13.9 12.1 77 2.2 SW 15 20 8 11 1004.0 1003.8 -
13/07:30am 15.6 13.3 11.8 78 2.1 S 15 19 8 10 1003.7 1003.4 -
13/07:00am 15.2 12.7 11.2 77 2.2 S 15 19 8 10 1004.2 1004.0 -
13/06:30am 14.7 11.8 11.1 79 1.9 S 17 22 9 12 1004.4 1004.2 -
13/06:00am 13.5 11.0 10.9 84 1.4 S 15 19 8 10 1004.1 1003.9 -
13/05:30am 13.5 11.0 10.9 84 1.4 S 15 17 8 9 1004.1 1003.9 -
13/05:00am 13.0 11.5 10.5 85 1.3 S 9 13 5 7 1004.1 1003.9 -
13/04:30am 12.6 11.1 10.7 88 1.0 SSE 9 11 5 6 1004.3 1004.1 -
13/04:00am 13.0 12.0 11.1 88 1.0 SSE 7 9 4 5 1004.8 1004.6 -
13/03:30am 13.8 12.5 11.1 84 1.4 SSW 9 11 5 6 1005.2 1005.0 -
13/03:00am 14.3 13.0 11.3 82 1.6 SW 9 11 5 6 1005.7 1005.4 0.0
13/02:30am 13.5 12.1 10.9 84 1.4 SW 9 13 5 7 1006.1 1005.8 -
13/02:00am 13.3 11.1 10.7 84 1.4 SSW 13 15 7 8 1006.2 1005.9 -
13/01:30am 13.0 10.7 10.5 85 1.3 SSW 13 15 7 8 1006.7 1006.4 -
13/01:00am 13.7 11.0 10.5 81 1.7 SW 15 19 8 10 1007.0 1006.7 -
13/12:30am 13.5 10.8 10.5 82 1.6 SW 15 17 8 9 1007.2 1006.9 -
13/12:00am 13.3 11.2 9.7 79 1.9 SSW 11 15 6 8 1007.6 1007.3 -
 
Date/Time
EDT
Temp
°C
App
Temp
°C
Dew
Point
°C
Rel
Hum
%
Delta-T
°C
Wind Press
QNH
hPa
Press
MSL
hPa
Rain since
9am
mm
Dir  Spd
km/h
Gust
km/h
Spd
kts
Gust
kts
12/11:30pm 15.0 13.3 9.8 71 2.7 SW 9 11 5 6 1007.8 1007.5 -
12/11:00pm 14.9 13.6 9.9 72 2.6 SSW 7 9 4 5 1008.1 1007.8 -
12/10:30pm 15.5 13.0 9.8 69 3.0 NNW 13 20 7 11 1008.5 1008.2 -
12/10:00pm 16.1 12.5 10.0 67 3.2 N 19 26 10 14 1008.7 1008.4 -
12/09:30pm 16.5 11.6 9.9 65 3.5 N 26 37 14 20 1008.7 1008.4 -
12/09:00pm 16.3 11.7 9.5 64 3.6 NNW 24 32 13 17 1008.4 1008.1 -
12/08:30pm 17.0 12.8 9.7 62 3.9 N 22 32 12 17 1008.2 1007.9 -
12/08:00pm 18.3 13.1 10.2 59 4.4 N 28 35 15 19 1008.0 1007.7 -
12/07:30pm 19.7 15.1 9.6 52 5.4 NNW 24 33 13 18 1007.9 1007.6 -
12/07:00pm 21.1 15.5 10.3 50 5.9 N 30 37 16 20 1008.2 1007.9 -
12/06:30pm 22.1 16.7 8.2 41 7.4 N 26 35 14 19 1008.4 1008.1 -
12/06:00pm 22.7 17.5 8.8 41 7.5 N 26 33 14 18 1008.5 1008.2 -
12/05:30pm 23.3 17.7 8.6 39 7.9 N 28 37 15 20 1008.5 1008.2 -
12/05:00pm 23.1 17.3 8.0 38 8.0 N 28 35 15 19 1008.9 1008.6 -
12/04:30pm 23.3 16.6 7.4 36 8.4 N 32 39 17 21 1009.1 1008.9 -
12/03:30pm 24.3 20.9 10.6 42 7.7 NNE 19 35 10 19 1010.1 1009.9 0.0
12/03:00pm 23.4 19.0 10.5 44 7.2 N 24 35 13 19 1010.7 1010.5 0.0
12/02:30pm 24.0 20.2 11.3 45 7.2 N 22 33 12 18 1011.0 1010.8 0.0
12/02:00pm 23.7 18.5 10.4 43 7.4 NNW 28 37 15 20 1011.5 1011.3 0.0
12/01:30pm 23.0 17.7 9.8 43 7.2 N 28 41 15 22 1012.1 1011.8 0.0
12/01:00pm 23.4 19.9 10.8 45 7.0 NW 20 33 11 18 1012.6 1012.3 0.0
12/12:30pm 22.3 18.6 9.5 44 6.9 NNW 19 30 10 16 1013.0 1012.7 0.0
12/12:00pm 21.5 18.4 7.3 40 7.4 N 13 26 7 14 1013.3 1013.0 0.0
12/11:30am 20.3 17.4 8.0 45 6.4 NNW 13 20 7 11 1013.8 1013.5 0.0
12/11:00am 19.6 16.1 7.4 45 6.3 NNW 15 22 8 12 1014.2 1014.0 0.0
12/10:30am 19.0 16.6 7.1 46 6.1 NE 9 17 5 9 1014.7 1014.5 0.0
12/10:00am 18.0 15.6 6.8 48 5.6 NNW 9 15 5 8 1015.2 1015.0 0.0
12/09:30am 17.2 15.1 8.4 56 4.5 NNW 9 13 5 7 1015.6 1015.4 0.0
12/09:00am 16.1 15.3 11.1 72 2.7 W 6 9 3 5 1015.8 1015.6 0.0
12/08:56am 15.1 13.7 9.7 70 2.8 WNW 7 11 4 6 1015.9 1015.7 0.0
12/08:30am 15.9 14.9 11.1 73 2.6 NNW 7 9 4 5 1016.0 1015.8 0.0
12/08:00am 15.1 14.4 11.3 78 2.0 NNE 6 11 3 6 1015.9 1015.7 0.0
12/07:54am 14.9 14.3 11.7 81 1.7 N 6 11 3 6 1016.0 1015.8 0.0
12/07:30am 13.3 12.1 10.3 82 1.6 NNW 7 9 4 5 1016.1 1015.9 0.0
12/07:00am 13.2 13.2 11.1 87 1.1 NW 2 7 1 4 1016.1 1015.9 0.0
12/06:30am 11.7 11.8 10.3 91 0.7 CALM 0 0 0 0 1016.2 1016.0 0.0
12/06:00am 10.9 10.8 9.5 91 0.7 CALM 0 0 0 0 1016.3 1016.1 0.0
12/05:49am 10.8 10.6 9.2 90 0.8 CALM 0 0 0 0 1016.3 1016.1 0.0
12/05:31am 10.8 10.6 8.9 88 0.9 CALM 0 0 0 0 1016.5 1016.3 0.0
12/05:30am 10.8 10.6 8.9 88 0.9 CALM 0 0 0 0 1016.5 1016.3 0.0
12/05:00am 12.7 12.3 9.9 83 1.4 W 2 6 1 3 1016.8 1016.6 0.0
12/04:30am 13.3 12.4 10.5 83 1.5 W 6 7 3 4 1016.9 1016.7 0.0
12/04:00am 13.5 11.9 10.3 81 1.7 WNW 9 11 5 6 1017.1 1016.9 0.0
12/03:30am 13.4 12.3 10.6 83 1.5 NNW 7 9 4 5 1017.3 1017.1 0.0
12/03:00am 13.7 12.2 10.5 81 1.7 NNW 9 11 5 6 1017.6 1017.4 0.0
12/02:30am 13.8 11.9 10.6 81 1.7 NW 11 17 6 9 1017.9 1017.7 0.0
12/02:00am 13.9 10.9 10.7 81 1.7 NW 17 20 9 11 1018.3 1018.0 0.0
12/01:30am 13.8 10.8 10.6 81 1.7 NW 17 20 9 11 1018.7 1018.4 0.0
12/01:00am 14.1 11.1 10.7 80 1.8 NW 17 22 9 12 1018.8 1018.5 0.0
12/12:30am 14.2 10.9 10.8 80 1.8 NW 19 22 10 12 1018.9 1018.6 0.0
12/12:00am 14.1 10.5 10.7 80 1.8 NW 20 24 11 13 1019.0 1018.7 0.0
 
Date/Time
EDT
Temp
°C
App
Temp
°C
Dew
Point
°C
Rel
Hum
%
Delta-T
°C
Wind Press
QNH
hPa
Press
MSL
hPa
Rain since
9am
mm
Dir  Spd
km/h
Gust
km/h
Spd
kts
Gust
kts
11/11:30pm 14.0 10.4 10.0 77 2.1 NW 19 24 10 13 1019.0 1018.7 0.0
11/11:00pm 14.5 11.3 10.1 75 2.3 WNW 17 20 9 11 1019.1 1018.8 0.0
11/10:30pm 14.5 11.6 9.7 73 2.5 WNW 15 19 8 10 1019.1 1018.8 0.0
11/10:00pm 14.5 11.3 9.9 74 2.4 NW 17 20 9 11 1019.1 1018.8 0.0
11/09:30pm 14.6 10.9 9.6 72 2.6 NW 19 22 10 12 1019.0 1018.7 0.0
11/09:00pm 15.3 11.5 9.9 70 2.8 NW 20 24 11 13 1018.8 1018.5 0.0
11/08:30pm 16.6 12.9 10.0 65 3.5 NW 20 26 11 14 1018.6 1018.3 0.0
11/08:00pm 17.4 12.9 10.1 62 3.9 NW 24 30 13 16 1018.4 1018.1 0.0
11/07:30pm 18.6 14.2 10.4 59 4.4 NNW 24 30 13 16 1018.2 1017.9 0.0
11/07:00pm 19.4 15.1 10.7 57 4.7 NW 24 32 13 17 1017.9 1017.7 0.0
11/06:30pm 20.0 15.7 10.7 55 5.1 NNW 24 32 13 17 1017.7 1017.5 0.0
11/06:00pm 20.8 16.7 11.4 55 5.2 NW 24 32 13 17 1017.7 1017.5 0.0
11/05:30pm 21.2 16.5 10.7 51 5.8 NNW 26 35 14 19 1017.8 1017.6 0.0
11/05:00pm 21.5 16.8 10.6 50 6.0 NNW 26 35 14 19 1017.9 1017.7 0.0
11/04:30pm 21.9 17.8 10.1 47 6.5 NW 22 37 12 20 1018.2 1017.9 0.0
11/04:00pm 22.8 18.7 11.5 49 6.4 NNW 24 32 13 17 1018.3 1018.0 0.0
11/03:30pm 23.5 19.9 10.6 44 7.2 NNW 20 28 11 15 1018.5 1018.2 0.0
11/03:00pm 21.8 19.5 10.3 48 6.3 NW 13 22 7 12 1018.5 1018.2 0.0
11/02:30pm 22.4 19.3 8.9 42 7.3 NW 15 26 8 14 1018.8 1018.5 0.0
11/02:00pm 21.4 19.1 7.6 41 7.2 NW 9 19 5 10 1019.1 1018.8 0.0
11/01:30pm 20.8 17.3 7.4 42 6.9 WNW 15 20 8 11 1019.6 1019.4 0.0
11/01:00pm 20.9 18.0 8.2 44 6.7 NW 13 20 7 11 1019.8 1019.6 0.0
11/12:30pm 21.0 17.4 9.9 49 6.0 NNW 19 28 10 15 1020.1 1019.9 0.0
11/12:00pm 19.5 17.0 8.2 48 5.9 WNW 11 20 6 11 1020.2 1020.0 0.0
11/11:30am 18.2 15.6 7.6 50 5.4 NNW 11 15 6 8 1020.2 1020.0 0.0
11/11:00am 17.4 15.4 8.5 56 4.6 NW 9 17 5 9 1020.3 1020.1 0.0
11/10:30am 16.7 14.6 8.4 58 4.3 NNW 9 15 5 8 1020.5 1020.3 0.0
11/10:00am 16.7 14.8 8.9 60 4.0 N 9 15 5 8 1020.4 1020.2 0.0
11/09:30am 16.3 15.5 9.5 64 3.6 NNW 4 13 2 7 1020.8 1020.6 0.0
11/09:00am 14.9 13.4 9.3 69 2.9 SE 7 13 4 7 1020.7 1020.5 0.0
11/08:30am 14.1 12.0 9.7 75 2.3 S 11 15 6 8 1020.5 1020.3 0.0
11/08:00am 12.2 9.7 8.3 77 1.9 SSE 11 15 6 8 1020.3 1020.1 0.0
11/07:30am 11.3 8.7 7.8 79 1.7 S 11 17 6 9 1020.0 1019.8 0.0
11/07:00am 10.6 7.2 7.8 83 1.4 S 15 20 8 11 1019.7 1019.5 0.0
11/06:30am 10.2 6.5 8.0 86 1.1 S 17 22 9 12 1019.4 1019.2 0.0
11/06:00am 9.7 6.4 8.0 89 0.8 S 15 17 8 9 1019.3 1019.1 0.0
11/05:30am 9.4 6.5 8.0 91 0.7 S 13 17 7 9 1019.1 1018.8 0.0
11/05:00am 9.3 6.0 7.9 91 0.7 S 15 19 8 10 1018.9 1018.6 0.0
11/04:30am 9.7 6.0 8.0 89 0.8 S 17 20 9 11 1018.7 1018.4 0.0
11/04:00am 9.9 7.4 8.0 88 0.9 S 11 13 6 7 1018.7 1018.4 0.0
11/03:30am 10.2 7.0 8.3 88 0.9 S 15 19 8 10 1018.6 1018.3 0.0
11/03:00am 10.5 7.3 8.3 86 1.1 S 15 19 8 10 1018.7 1018.4 0.0
11/02:30am 10.8 7.7 8.7 87 1.0 S 15 17 8 9 1018.8 1018.5 0.0
11/02:00am 11.2 8.2 9.1 87 1.1 S 15 19 8 10 1018.7 1018.4 0.0
11/01:30am 11.3 8.7 9.2 87 1.1 S 13 17 7 9 1018.8 1018.5 0.0
11/01:00am 11.5 8.9 9.2 86 1.2 S 13 17 7 9 1018.7 1018.4 0.0
11/12:30am 11.8 9.6 9.2 84 1.3 S 11 13 6 7 1018.7 1018.4 0.0
11/12:00am 12.2 10.3 9.2 82 1.5 SSE 9 13 5 7 1018.7 1018.4 0.0
 
Date/Time
EDT
Temp
°C
App
Temp
°C
Dew
Point
°C
Rel
Hum
%
Delta-T
°C
Wind Press
QNH
hPa
Press
MSL
hPa
Rain since
9am
mm
Dir  Spd
km/h
Gust
km/h
Spd
kts
Gust
kts
10/11:30pm 12.7 10.6 9.7 82 1.5 SSE 11 13 6 7 1018.5 1018.2 0.0
10/11:00pm 13.4 10.6 10.0 80 1.8 S 15 17 8 9 1018.2 1017.9 0.0
10/10:30pm 14.1 11.3 10.1 77 2.1 SSE 15 19 8 10 1018.0 1017.8 0.0
10/10:00pm 15.0 12.0 9.4 69 2.9 SSE 15 17 8 9 1017.6 1017.4 0.0
10/09:30pm 15.9 11.9 8.4 61 3.8 SE 19 24 10 13 1017.2 1017.0 0.0
10/09:00pm 17.1 13.8 8.0 55 4.6 SE 15 24 8 13 1016.8 1016.6 0.0
10/08:30pm 18.0 14.4 8.3 53 5.0 SE 17 22 9 12 1016.3 1016.1 0.0
10/08:00pm 19.1 14.0 7.5 47 5.9 SSE 24 32 13 17 1015.5 1015.3 0.0
10/07:30pm 20.3 14.1 6.3 40 7.1 SSE 28 37 15 20 1015.0 1014.8 0.0
10/07:00pm 21.6 16.0 5.5 35 8.1 SE 24 35 13 19 1014.4 1014.2 0.0
10/06:30pm 22.4 16.4 5.4 33 8.6 SE 26 35 14 19 1014.1 1013.9 0.0
10/06:00pm 23.5 18.3 5.4 31 9.2 SSE 22 37 12 20 1013.6 1013.3 0.0
10/05:30pm 23.0 20.2 5.0 31 9.0 SSE 9 20 5 11 1013.4 1013.1 0.0
10/05:00pm 22.8 19.9 4.8 31 9.0 SSW 9 17 5 9 1013.4 1013.1 0.0
10/04:30pm 22.5 20.6 7.5 38 7.9 SE 7 13 4 7 1013.4 1013.1 0.0
10/04:00pm 22.6 18.6 5.1 32 8.8 SSE 15 19 8 10 1013.5 1013.2 0.0
10/03:30pm 24.1 20.0 4.5 28 9.8 SSW 15 26 8 14 1013.5 1013.2 0.0

Other Formats:

Comma delimited format used in spreadsheet applications
http://www.bom.gov.au/fwo/IDT60801/IDT60801.95966.axf

JavaScript Object Notation format (JSON) in row-major order
http://www.bom.gov.au/fwo/IDT60801/IDT60801.95966.json